Time;durP1;ratioP1;P1;durP2;ratioP2;P2;SDS_P1;SDS_P2;PMS_P1;PMS_P2;Temp;Humidity;BMP_temperature;BMP_pressure;BME280_temperature;BME280_humidity;BME280_pressure;Samples;Min_cycle;Max_cycle;Signal;HPM_P1;HPM_P2
2023/06/24 00:00:11;;;;;;;6.10;5.90;;;16.80;99.90;;;;;;5044585;28;20891;-66
2023/06/24 00:02:43;;;;;;;6.50;6.30;;;16.80;99.90;;;;;;5027470;28;21076;-67
2023/06/24 00:05:10;;;;;;;5.97;5.77;;;16.80;99.90;;;;;;5043220;28;20950;-67
2023/06/24 00:07:44;;;;;;;6.50;6.30;;;16.80;99.90;;;;;;5045902;28;20490;-66
2023/06/24 00:10:11;;;;;;;6.93;6.73;;;16.80;99.90;;;;;;5034814;28;20456;-66
2023/06/24 00:12:40;;;;;;;6.53;6.33;;;16.90;99.90;;;;;;5044084;28;20532;-66
2023/06/24 00:15:09;;;;;;;6.50;6.30;;;16.90;99.90;;;;;;5041874;28;20486;-66
2023/06/24 00:17:36;;;;;;;7.10;6.90;;;16.80;99.90;;;;;;5031118;28;20463;-67
2023/06/24 00:20:08;;;;;;;6.20;6.00;;;16.80;99.90;;;;;;5043574;28;20463;-67
2023/06/24 00:22:36;;;;;;;6.30;6.10;;;16.80;99.90;;;;;;5036383;28;20492;-66
2023/06/24 00:25:02;;;;;;;6.90;6.70;;;16.70;99.90;;;;;;5042811;28;20456;-66
2023/06/24 00:27:29;;;;;;;6.20;6.00;;;16.70;99.90;;;;;;5036161;28;20473;-67
2023/06/24 00:29:56;;;;;;;5.87;5.67;;;16.80;99.90;;;;;;5042799;28;20534;-66
2023/06/24 00:32:23;;;;;;;6.20;6.00;;;16.80;99.90;;;;;;5040906;28;20830;-66
2023/06/24 00:34:50;;;;;;;5.50;5.40;;;16.70;99.90;;;;;;5045902;28;20463;-65
2023/06/24 00:37:18;;;;;;;5.23;5.13;;;16.70;99.90;;;;;;5042243;28;20471;-67
2023/06/24 00:39:45;;;;;;;6.20;6.00;;;16.70;99.90;;;;;;5038277;28;20534;-66
2023/06/24 00:42:13;;;;;;;6.53;6.33;;;16.70;99.90;;;;;;5048013;28;21064;-66
2023/06/24 00:44:40;;;;;;;6.80;6.60;;;16.70;99.90;;;;;;5030403;28;20499;-66
2023/06/24 00:47:09;;;;;;;6.20;6.00;;;16.70;99.90;;;;;;5044569;28;21023;-66
2023/06/24 00:49:37;;;;;;;6.47;6.27;;;16.60;99.90;;;;;;5040709;28;20480;-67
2023/06/24 00:52:05;;;;;;;6.90;6.70;;;16.50;99.90;;;;;;5044407;28;20522;-65
2023/06/24 00:54:33;;;;;;;6.47;6.27;;;16.50;99.90;;;;;;5044839;28;20466;-66
2023/06/24 00:57:01;;;;;;;5.87;5.67;;;16.40;99.90;;;;;;5038977;28;20965;-67
2023/06/24 00:59:31;;;;;;;6.03;5.83;;;16.40;99.90;;;;;;5041674;28;20797;-67
2023/06/24 01:02:01;;;;;;;6.53;6.33;;;16.30;99.90;;;;;;5037536;28;20491;-67
2023/06/24 01:04:28;;;;;;;6.83;6.63;;;16.30;99.90;;;;;;5039476;28;20466;-66
2023/06/24 01:06:56;;;;;;;6.57;6.37;;;16.40;99.90;;;;;;5043617;28;20468;-67
2023/06/24 01:09:23;;;;;;;6.50;6.30;;;16.40;99.90;;;;;;5037166;28;20464;-65
2023/06/24 01:11:51;;;;;;;6.20;6.00;;;16.40;99.90;;;;;;5044785;28;20463;-66
2023/06/24 01:14:19;;;;;;;6.60;6.40;;;16.40;99.90;;;;;;5040184;28;20470;-67
2023/06/24 01:16:55;;;;;;;6.43;6.23;;;16.40;99.90;;;;;;5044296;28;20862;-66
2023/06/24 01:19:52;;;;;;;5.80;5.60;;;16.50;99.90;;;;;;5038828;28;21045;-67
2023/06/24 01:22:31;;;;;;;6.00;5.80;;;16.50;99.90;;;;;;5041873;28;20661;-67
2023/06/24 01:25:14;;;;;;;6.10;5.90;;;16.50;99.90;;;;;;5041849;28;20471;-66
2023/06/24 01:28:05;;;;;;;6.77;6.57;;;16.50;99.90;;;;;;5036964;28;20464;-67
2023/06/24 01:31:10;;;;;;;7.10;6.90;;;16.40;99.90;;;;;;5039714;28;20944;-66
2023/06/24 01:33:47;;;;;;;6.37;6.17;;;16.40;99.90;;;;;;5035121;28;20478;-66
2023/06/24 01:36:16;;;;;;;6.57;6.37;;;16.40;99.90;;;;;;5033450;28;20467;-67
2023/06/24 01:38:49;;;;;;;6.30;6.10;;;16.40;99.90;;;;;;5043568;28;20459;-66
2023/06/24 01:41:22;;;;;;;6.20;6.00;;;16.40;99.90;;;;;;5031233;28;20559;-67
2023/06/24 01:43:51;;;;;;;6.37;6.17;;;16.40;99.90;;;;;;5047762;28;20506;-65
2023/06/24 01:46:22;;;;;;;5.90;5.70;;;16.40;99.90;;;;;;5039468;28;20796;-67
2023/06/24 01:48:53;;;;;;;6.30;6.10;;;16.40;99.90;;;;;;5043929;28;20463;-66
2023/06/24 01:51:23;;;;;;;6.60;6.40;;;16.40;99.90;;;;;;5038298;28;20478;-66
2023/06/24 01:53:53;;;;;;;6.43;6.23;;;16.40;99.90;;;;;;5037658;28;20479;-67
2023/06/24 01:56:24;;;;;;;6.33;6.13;;;16.40;99.90;;;;;;5044584;28;20496;-66
2023/06/24 01:58:54;;;;;;;6.60;6.40;;;16.40;99.90;;;;;;5034762;28;20982;-66
2023/06/24 02:01:23;;;;;;;5.60;5.43;;;16.40;99.90;;;;;;5034522;28;20460;-66
2023/06/24 02:03:54;;;;;;;7.40;7.20;;;16.30;99.90;;;;;;5036117;28;20495;-67
2023/06/24 02:06:23;;;;;;;7.03;6.83;;;16.20;99.90;;;;;;5045214;28;20456;-65
2023/06/24 02:08:53;;;;;;;6.60;6.40;;;16.30;99.90;;;;;;5039215;28;20464;-65
2023/06/24 02:11:21;;;;;;;7.60;7.30;;;16.40;99.90;;;;;;5043119;28;20955;-66
2023/06/24 02:13:49;;;;;;;7.07;6.77;;;16.50;99.90;;;;;;5041434;28;20464;-67
2023/06/24 02:16:17;;;;;;;6.90;6.70;;;16.70;99.90;;;;;;5033113;28;20480;-66
2023/06/24 02:18:47;;;;;;;5.93;5.73;;;16.80;99.90;;;;;;5044178;28;20766;-67
2023/06/24 02:21:18;;;;;;;5.80;5.60;;;16.80;99.90;;;;;;5033553;28;20500;-66
2023/06/24 02:23:45;;;;;;;5.43;5.33;;;16.80;99.90;;;;;;5041137;28;20499;-66
2023/06/24 02:26:13;;;;;;;6.10;5.90;;;16.80;99.90;;;;;;5036789;28;20460;-67
2023/06/24 02:28:41;;;;;;;6.67;6.47;;;16.70;99.90;;;;;;5041725;28;20783;-66
2023/06/24 02:31:11;;;;;;;7.20;6.80;;;16.60;99.90;;;;;;5023846;28;20460;-65
2023/06/24 02:33:39;;;;;;;7.27;7.07;;;16.60;99.90;;;;;;5046827;28;20860;-64
2023/06/24 02:36:06;;;;;;;7.23;7.03;;;16.60;99.90;;;;;;5040082;28;20472;-68
2023/06/24 02:38:34;;;;;;;7.17;6.97;;;16.50;99.90;;;;;;5036796;28;21050;-67
2023/06/24 02:41:04;;;;;;;7.17;6.97;;;16.50;99.90;;;;;;5042861;28;20464;-66
2023/06/24 02:43:31;;;;;;;7.10;6.90;;;16.40;99.90;;;;;;5035926;28;20523;-67
2023/06/24 02:46:01;;;;;;;7.37;7.17;;;16.40;99.90;;;;;;5041542;28;20479;-66
2023/06/24 02:48:32;;;;;;;8.00;7.70;;;16.40;99.90;;;;;;5029640;28;20551;-67
2023/06/24 02:51:00;;;;;;;8.13;7.83;;;16.30;99.90;;;;;;5037452;28;20471;-67
2023/06/24 02:53:27;;;;;;;7.23;7.03;;;16.30;99.90;;;;;;5045634;28;20486;-65
2023/06/24 02:55:56;;;;;;;7.00;6.80;;;16.30;99.90;;;;;;5045361;28;20464;-67
2023/06/24 02:58:26;;;;;;;7.47;7.27;;;16.20;99.90;;;;;;5030824;28;20946;-67
2023/06/24 03:00:54;;;;;;;7.60;7.40;;;16.10;99.90;;;;;;5035572;28;20534;-65
2023/06/24 03:03:21;;;;;;;7.60;7.40;;;16.10;99.90;;;;;;5041654;28;20537;-65
2023/06/24 03:05:50;;;;;;;8.60;8.20;;;16.00;99.90;;;;;;5042989;28;20472;-65
2023/06/24 03:08:16;;;;;;;7.40;7.20;;;16.00;99.90;;;;;;5038454;28;20869;-68
2023/06/24 03:10:44;;;;;;;7.50;7.30;;;16.00;99.90;;;;;;5035529;28;20456;-67
2023/06/24 03:13:12;;;;;;;7.80;7.60;;;15.90;99.90;;;;;;5033852;28;20459;-65
2023/06/24 03:15:40;;;;;;;7.53;7.33;;;15.90;99.90;;;;;;5041290;28;20488;-66
2023/06/24 03:18:07;;;;;;;7.60;7.40;;;15.80;99.90;;;;;;5036156;28;20469;-68
2023/06/24 03:20:38;;;;;;;7.50;7.30;;;15.80;99.90;;;;;;5037383;28;20467;-65
2023/06/24 03:23:06;;;;;;;7.30;7.10;;;15.80;99.90;;;;;;5045685;28;20487;-66
2023/06/24 03:25:34;;;;;;;7.50;7.30;;;15.80;99.90;;;;;;5037882;28;20456;-65
2023/06/24 03:28:01;;;;;;;7.30;7.10;;;15.80;99.90;;;;;;5035636;28;20808;-66
2023/06/24 03:30:29;;;;;;;7.10;6.90;;;15.80;99.90;;;;;;5039255;28;20558;-65
2023/06/24 03:32:57;;;;;;;7.20;7.00;;;15.80;99.90;;;;;;5038051;28;20859;-66
2023/06/24 03:35:24;;;;;;;7.00;6.80;;;15.80;99.90;;;;;;5041182;28;20461;-67
2023/06/24 03:37:51;;;;;;;7.30;7.10;;;15.80;99.90;;;;;;5039763;28;20462;-65
2023/06/24 03:40:19;;;;;;;7.37;7.17;;;15.90;99.90;;;;;;5040177;28;20585;-65
2023/06/24 03:42:46;;;;;;;7.30;7.10;;;15.90;99.90;;;;;;5039676;28;20481;-66
2023/06/24 03:45:13;;;;;;;7.00;6.80;;;16.00;99.90;;;;;;5044073;28;20502;-67
2023/06/24 03:47:41;;;;;;;5.80;5.60;;;16.10;99.90;;;;;;5041411;28;20824;-67
2023/06/24 03:50:09;;;;;;;7.00;6.80;;;16.20;99.90;;;;;;5039762;28;20452;-66
2023/06/24 03:52:35;;;;;;;6.73;6.53;;;16.30;99.90;;;;;;5033155;28;20473;-66
2023/06/24 03:55:04;;;;;;;6.53;6.33;;;16.40;99.90;;;;;;5041051;28;20836;-65
2023/06/24 03:57:32;;;;;;;37.50;14.23;;;16.50;99.90;;;;;;5045481;28;20558;-66
2023/06/24 03:59:59;;;;;;;5.70;5.50;;;16.60;99.90;;;;;;5040840;28;20609;-66
2023/06/24 04:02:26;;;;;;;6.07;5.87;;;16.50;99.90;;;;;;5038954;28;20851;-67
2023/06/24 04:04:56;;;;;;;6.13;5.93;;;16.50;99.90;;;;;;5044647;28;20542;-68
2023/06/24 04:07:27;;;;;;;9.13;8.73;;;16.60;99.90;;;;;;5041576;28;20467;-67
2023/06/24 04:09:55;;;;;;;6.07;5.87;;;16.60;99.90;;;;;;5043659;28;20999;-67
2023/06/24 04:12:22;;;;;;;5.40;5.30;;;16.60;99.90;;;;;;5040281;28;20961;-66
2023/06/24 04:14:49;;;;;;;6.03;5.83;;;16.60;99.90;;;;;;5041600;28;20476;-67
2023/06/24 04:17:16;;;;;;;7.43;7.13;;;16.60;99.90;;;;;;5041333;28;20954;-65
2023/06/24 04:19:43;;;;;;;6.30;6.10;;;16.60;99.90;;;;;;5046699;28;20989;-66
2023/06/24 04:22:12;;;;;;;7.40;7.13;;;16.70;99.90;;;;;;5041683;28;20468;-67
2023/06/24 04:24:40;;;;;;;7.20;6.80;;;16.80;99.90;;;;;;5042721;28;20491;-65
2023/06/24 04:27:09;;;;;;;6.37;6.07;;;16.90;99.90;;;;;;5037414;28;20848;-67
2023/06/24 04:29:36;;;;;;;6.07;5.77;;;17.00;99.90;;;;;;5041366;28;20517;-66
2023/06/24 04:32:05;;;;;;;11.23;4.70;;;17.00;99.90;;;;;;5032071;28;20460;-67
2023/06/24 04:34:32;;;;;;;4.67;4.57;;;17.10;99.90;;;;;;5044288;28;20466;-65
2023/06/24 04:36:59;;;;;;;4.90;4.80;;;17.10;99.90;;;;;;5045427;28;21030;-65
2023/06/24 04:39:28;;;;;;;4.17;4.07;;;17.20;99.90;;;;;;5035851;28;20468;-65
2023/06/24 04:41:55;;;;;;;6.60;6.30;;;17.20;99.90;;;;;;5035811;28;20476;-66
2023/06/24 04:44:22;;;;;;;4.63;4.50;;;17.20;99.90;;;;;;5044866;28;20503;-66
2023/06/24 04:46:49;;;;;;;5.20;5.00;;;17.20;99.90;;;;;;5035324;28;20465;-65
2023/06/24 04:49:16;;;;;;;3.70;3.60;;;17.30;99.90;;;;;;5043719;28;20467;-66
2023/06/24 04:51:43;;;;;;;4.30;4.10;;;17.30;99.90;;;;;;5042405;28;20463;-68
2023/06/24 04:54:12;;;;;;;4.13;4.03;;;17.40;99.90;;;;;;5046796;28;20488;-65
2023/06/24 04:56:41;;;;;;;7.13;4.33;;;17.50;99.90;;;;;;5035460;28;20476;-68
2023/06/24 04:59:08;;;;;;;4.10;3.90;;;17.50;99.90;;;;;;5041678;28;20457;-68
2023/06/24 05:01:35;;;;;;;6.57;6.17;;;17.60;99.90;;;;;;5032432;28;20487;-66
2023/06/24 05:04:02;;;;;;;7.00;5.83;;;17.60;99.90;;;;;;5038684;28;20486;-65
2023/06/24 05:06:29;;;;;;;4.60;4.50;;;17.70;99.90;;;;;;5043420;28;20852;-65
2023/06/24 05:08:57;;;;;;;5.33;5.13;;;17.80;99.90;;;;;;5039437;28;20988;-65
2023/06/24 05:11:24;;;;;;;4.57;4.43;;;17.90;99.90;;;;;;5047277;28;20466;-67
2023/06/24 05:13:53;;;;;;;5.33;4.87;;;17.80;99.90;;;;;;5035704;28;20522;-66
2023/06/24 05:16:19;;;;;;;7.30;6.80;;;17.90;99.90;;;;;;5041390;28;21225;-67
2023/06/24 05:18:46;;;;;;;6.60;6.30;;;17.90;99.90;;;;;;5041271;28;20973;-66
2023/06/24 05:21:13;;;;;;;6.73;6.43;;;18.00;99.90;;;;;;5039736;28;20460;-65
2023/06/24 05:23:40;;;;;;;6.30;6.10;;;18.10;99.90;;;;;;5043841;28;20493;-68
2023/06/24 05:26:07;;;;;;;6.83;6.63;;;18.10;99.90;;;;;;5036111;28;20472;-66
2023/06/24 05:28:34;;;;;;;8.40;7.90;;;18.20;99.90;;;;;;5038473;28;20987;-67
2023/06/24 05:31:02;;;;;;;7.37;7.07;;;18.20;99.90;;;;;;5038431;28;20453;-66
2023/06/24 05:33:29;;;;;;;7.67;7.40;;;18.30;99.90;;;;;;5038650;28;20468;-67
2023/06/24 05:35:56;;;;;;;8.93;8.53;;;18.40;99.90;;;;;;5045854;28;20451;-67
2023/06/24 05:38:23;;;;;;;9.70;9.27;;;18.40;99.90;;;;;;5038658;28;20463;-66
2023/06/24 05:40:51;;;;;;;8.40;8.10;;;18.60;99.90;;;;;;5045206;28;20812;-66
2023/06/24 05:43:18;;;;;;;10.40;9.83;;;18.70;99.90;;;;;;5039398;28;20589;-66
2023/06/24 05:45:45;;;;;;;8.83;8.33;;;18.60;99.90;;;;;;5036041;28;20468;-66
2023/06/24 05:48:14;;;;;;;8.40;8.10;;;18.80;99.90;;;;;;5039225;28;20826;-66
2023/06/24 05:50:41;;;;;;;9.87;9.37;;;18.90;99.90;;;;;;5044400;28;20456;-66
2023/06/24 05:53:08;;;;;;;9.13;8.83;;;19.00;99.90;;;;;;5046915;28;20466;-67
2023/06/24 05:55:34;;;;;;;8.43;8.13;;;19.10;99.90;;;;;;5037925;28;20456;-65
2023/06/24 05:58:01;;;;;;;7.87;7.60;;;19.20;99.90;;;;;;5032047;28;20975;-66
2023/06/24 06:00:28;;;;;;;8.37;8.07;;;19.30;99.90;;;;;;5036208;28;20444;-65
2023/06/24 06:02:55;;;;;;;9.40;9.10;;;19.40;99.90;;;;;;5026464;28;20469;-67
2023/06/24 06:05:23;;;;;;;8.60;8.30;;;19.50;99.90;;;;;;5038061;28;20943;-67
2023/06/24 06:07:50;;;;;;;10.43;9.83;;;19.50;99.90;;;;;;5039405;28;20494;-66
2023/06/24 06:10:17;;;;;;;13.63;12.73;;;19.50;99.90;;;;;;5034437;28;20471;-66
2023/06/24 06:12:44;;;;;;;12.40;11.60;;;19.60;99.90;;;;;;5037558;28;20551;-66
2023/06/24 06:15:11;;;;;;;11.33;10.93;;;19.70;99.90;;;;;;5035820;28;20816;-66
2023/06/24 06:17:38;;;;;;;12.67;11.97;;;19.80;99.90;;;;;;5033998;28;20464;-66
2023/06/24 06:20:07;;;;;;;10.90;10.50;;;19.80;99.90;;;;;;5036264;28;20496;-66
2023/06/24 06:22:37;;;;;;;15.90;14.57;;;20.00;99.90;;;;;;5038965;28;20722;-66
2023/06/24 06:25:05;;;;;;;12.10;11.60;;;20.00;99.90;;;;;;5032742;28;20491;-66
2023/06/24 06:27:32;;;;;;;12.23;11.73;;;20.10;99.90;;;;;;5038365;28;20457;-69
2023/06/24 06:29:59;;;;;;;11.33;10.93;;;20.30;99.90;;;;;;5039242;28;21022;-67
2023/06/24 06:32:26;;;;;;;12.97;12.27;;;20.40;99.90;;;;;;5028053;28;20611;-66
2023/06/24 06:34:53;;;;;;;13.07;12.50;;;20.40;99.90;;;;;;5033364;28;20460;-67
2023/06/24 06:37:20;;;;;;;11.20;10.80;;;20.40;99.90;;;;;;5041132;28;20460;-67
2023/06/24 06:39:48;;;;;;;14.03;13.27;;;20.40;99.90;;;;;;5036328;28;22355;-67
2023/06/24 06:42:15;;;;;;;12.23;11.73;;;20.50;99.90;;;;;;5041397;28;20464;-66
2023/06/24 06:44:42;;;;;;;12.70;12.20;;;20.70;99.90;;;;;;5034979;28;20496;-66
2023/06/24 06:47:09;;;;;;;13.57;12.77;;;20.80;99.90;;;;;;5032711;28;20876;-67
2023/06/24 06:49:36;;;;;;;13.80;13.20;;;20.80;99.90;;;;;;5037712;28;20483;-67
2023/06/24 06:52:02;;;;;;;14.30;13.60;;;20.90;99.90;;;;;;5042100;28;20464;-68
2023/06/24 06:54:29;;;;;;;14.23;13.53;;;21.00;99.90;;;;;;5043287;28;20821;-65
2023/06/24 06:57:01;;;;;;;13.90;13.30;;;21.10;99.90;;;;;;5035655;28;20989;-66
2023/06/24 06:59:28;;;;;;;16.37;14.27;;;21.10;99.90;;;;;;5040631;28;20926;-67
2023/06/24 07:01:54;;;;;;;14.73;13.30;;;21.20;99.90;;;;;;5042444;28;20452;-67
2023/06/24 07:04:21;;;;;;;13.30;12.70;;;21.20;99.90;;;;;;5029973;28;20492;-68
2023/06/24 07:06:49;;;;;;;15.13;14.47;;;21.20;99.90;;;;;;5039983;28;21150;-67
2023/06/24 07:09:15;;;;;;;13.53;12.93;;;21.40;99.90;;;;;;5040017;28;20982;-67
2023/06/24 07:11:42;;;;;;;13.87;13.17;;;21.60;99.90;;;;;;5044056;28;20923;-68
2023/06/24 07:14:11;;;;;;;14.43;13.83;;;21.70;99.90;;;;;;5033946;28;20476;-67
2023/06/24 07:16:37;;;;;;;16.60;15.80;;;21.70;99.90;;;;;;5034440;28;20821;-68
2023/06/24 07:19:04;;;;;;;12.80;12.30;;;21.70;99.90;;;;;;5038196;28;20578;-67
2023/06/24 07:21:31;;;;;;;12.73;12.23;;;21.80;99.90;;;;;;5036746;28;20459;-67
2023/06/24 07:23:58;;;;;;;14.57;13.77;;;21.90;99.90;;;;;;5038109;28;20492;-67
2023/06/24 07:26:25;;;;;;;14.67;12.37;;;22.00;99.90;;;;;;5038414;28;20886;-68
2023/06/24 07:28:51;;;;;;;13.07;12.57;;;22.20;99.90;;;;;;5034399;28;20461;-68
2023/06/24 07:31:20;;;;;;;14.60;13.83;;;22.30;99.90;;;;;;5043881;28;20881;-67
2023/06/24 07:33:46;;;;;;;12.90;12.40;;;22.50;99.90;;;;;;5041073;28;20472;-68
2023/06/24 07:36:14;;;;;;;12.43;11.90;;;22.30;99.90;;;;;;5043344;28;20460;-67
2023/06/24 07:38:41;;;;;;;14.10;13.20;;;22.50;99.90;;;;;;5037794;28;20492;-67
2023/06/24 07:41:08;;;;;;;11.43;11.03;;;22.60;99.90;;;;;;5040503;28;20464;-67
2023/06/24 07:43:35;;;;;;;14.27;13.47;;;22.80;99.90;;;;;;5031810;28;20487;-65
2023/06/24 07:46:03;;;;;;;12.10;11.60;;;22.90;99.90;;;;;;5036721;28;20475;-67
2023/06/24 07:48:31;;;;;;;13.00;12.50;;;22.90;99.90;;;;;;5039474;28;20859;-65
2023/06/24 07:50:59;;;;;;;12.23;11.73;;;23.10;99.90;;;;;;5048382;28;20467;-66
2023/06/24 07:53:26;;;;;;;13.87;13.27;;;23.10;99.90;;;;;;5040095;28;20456;-67
2023/06/24 07:55:52;;;;;;;13.67;12.87;;;23.10;99.90;;;;;;5049914;28;21070;-66
2023/06/24 07:58:20;;;;;;;13.67;13.07;;;23.20;99.90;;;;;;5033545;28;20463;-65
2023/06/24 08:00:47;;;;;;;11.93;11.53;;;23.00;99.90;;;;;;5047241;28;20841;-65
2023/06/24 08:03:14;;;;;;;14.23;13.33;;;23.20;99.90;;;;;;5041293;28;20890;-67
2023/06/24 08:05:42;;;;;;;14.47;13.77;;;23.60;99.90;;;;;;5049394;28;20487;-66
2023/06/24 08:08:09;;;;;;;13.20;12.60;;;24.10;99.90;;;;;;5045685;28;20474;-66
2023/06/24 08:10:36;;;;;;;11.97;11.57;;;24.70;99.90;;;;;;5045501;28;20505;-67
2023/06/24 08:13:04;;;;;;;13.53;13.03;;;25.10;99.90;;;;;;5035746;28;20451;-67
2023/06/24 08:15:31;;;;;;;13.30;12.80;;;25.80;99.90;;;;;;5037550;28;20484;-67
2023/06/24 08:17:58;;;;;;;13.53;12.93;;;26.80;99.90;;;;;;5038595;28;20456;-67
2023/06/24 08:20:25;;;;;;;16.30;15.53;;;27.00;99.90;;;;;;5041460;28;20563;-66
2023/06/24 08:22:54;;;;;;;13.37;12.87;;;27.50;99.90;;;;;;5045057;28;21043;-66
2023/06/24 08:25:20;;;;;;;15.83;14.93;;;28.00;99.90;;;;;;5044743;28;20829;-68
2023/06/24 08:27:47;;;;;;;13.47;12.97;;;28.00;99.90;;;;;;5036100;28;20464;-67
2023/06/24 08:30:15;;;;;;;15.80;15.00;;;28.00;99.90;;;;;;5043554;28;20452;-67
2023/06/24 08:32:42;;;;;;;14.27;13.67;;;28.00;99.90;;;;;;5037573;28;20866;-67
2023/06/24 08:35:11;;;;;;;15.43;14.67;;;27.80;99.90;;;;;;5039627;28;20475;-67
2023/06/24 08:37:38;;;;;;;14.10;13.50;;;28.30;99.90;;;;;;5039711;28;20955;-67
2023/06/24 08:40:08;;;;;;;17.07;16.07;;;28.30;99.90;;;;;;5045306;28;20467;-66
2023/06/24 08:42:35;;;;;;;14.70;14.10;;;28.40;99.90;;;;;;5036916;28;20460;-67
2023/06/24 08:45:01;;;;;;;14.60;14.00;;;28.10;99.90;;;;;;5040182;28;20513;-67
2023/06/24 08:47:29;;;;;;;14.50;13.90;;;27.80;99.90;;;;;;5040082;28;20468;-69
2023/06/24 08:50:03;;;;;;;14.97;14.37;;;28.50;99.90;;;;;;5048496;28;20464;-68
2023/06/24 08:52:32;;;;;;;16.07;15.37;;;28.90;99.90;;;;;;5034924;28;20495;-67
2023/06/24 08:55:00;;;;;;;15.57;14.87;;;29.40;99.90;;;;;;5044884;28;20833;-67
2023/06/24 08:57:29;;;;;;;16.53;15.77;;;29.70;99.90;;;;;;5045377;28;20500;-69
2023/06/24 08:59:57;;;;;;;17.40;16.50;;;29.60;99.90;;;;;;5036544;28;20862;-67
2023/06/24 09:02:24;;;;;;;15.10;14.50;;;29.90;99.90;;;;;;5038502;28;20553;-67
2023/06/24 09:04:52;;;;;;;14.77;14.17;;;29.90;99.90;;;;;;5048835;28;20977;-67
2023/06/24 09:07:34;;;;;;;17.07;16.20;;;30.10;99.90;;;;;;5041620;28;20498;-67
2023/06/24 09:10:01;;;;;;;15.33;14.73;;;30.60;99.90;;;;;;5034824;28;20464;-67
2023/06/24 09:12:32;;;;;;;17.17;16.37;;;30.80;99.90;;;;;;5040956;28;20488;-68
2023/06/24 09:15:00;;;;;;;17.17;16.37;;;30.90;99.90;;;;;;5034105;28;20491;-67
2023/06/24 09:17:28;;;;;;;16.10;15.40;;;31.10;99.90;;;;;;5039724;28;20468;-67
2023/06/24 09:20:04;;;;;;;15.37;14.77;;;31.10;99.90;;;;;;5044381;28;20529;-68
2023/06/24 09:22:32;;;;;;;17.30;16.30;;;31.10;99.90;;;;;;5042584;28;20550;-68
2023/06/24 09:25:02;;;;;;;16.07;15.37;;;31.10;99.90;;;;;;5039441;28;20487;-68
2023/06/24 09:27:33;;;;;;;17.70;16.90;;;31.10;99.90;;;;;;5038689;28;20499;-68
2023/06/24 09:30:00;;;;;;;17.40;16.43;;;30.40;99.90;;;;;;5039087;28;20526;-67
2023/06/24 09:32:30;;;;;;;15.53;14.73;;;30.40;99.90;;;;;;5045288;28;20824;-67
2023/06/24 09:34:56;;;;;;;14.77;14.17;;;30.60;99.90;;;;;;5044089;28;20801;-68
2023/06/24 09:37:30;;;;;;;15.40;14.80;;;30.80;99.90;;;;;;5044822;28;20549;-67
2023/06/24 09:39:57;;;;;;;17.20;16.40;;;31.00;99.90;;;;;;5033471;28;20464;-67
2023/06/24 09:42:24;;;;;;;16.10;15.50;;;31.70;99.90;;;;;;5038745;28;20465;-68
2023/06/24 09:44:55;;;;;;;16.47;15.77;;;31.50;99.90;;;;;;5040374;28;20499;-68
2023/06/24 09:47:24;;;;;;;17.37;16.23;;;31.60;99.50;;;;;;5032686;28;20463;-67
2023/06/24 09:49:52;;;;;;;17.13;15.60;;;31.70;97.90;;;;;;5036388;28;20579;-68
2023/06/24 09:52:20;;;;;;;16.20;15.50;;;31.60;97.00;;;;;;5038372;28;20975;-68
2023/06/24 09:54:51;;;;;;;16.57;15.83;;;31.50;95.60;;;;;;5047812;28;20467;-68
2023/06/24 09:57:19;;;;;;;17.13;16.43;;;31.50;94.60;;;;;;5041987;28;20815;-69
2023/06/24 09:59:46;;;;;;;16.67;15.80;;;31.90;95.30;;;;;;5042591;28;20951;-67
2023/06/24 10:02:16;;;;;;;15.10;14.50;;;32.20;92.80;;;;;;5038126;28;20463;-68
2023/06/24 10:04:44;;;;;;;15.17;14.57;;;32.00;92.90;;;;;;5035854;28;20574;-69
2023/06/24 10:07:11;;;;;;;15.47;14.87;;;32.40;92.50;;;;;;5043912;28;20667;-68
2023/06/24 10:09:39;;;;;;;15.87;15.23;;;32.80;91.50;;;;;;5039559;28;20829;-69
2023/06/24 10:12:07;;;;;;;15.00;14.40;;;33.20;91.90;;;;;;5032716;28;20487;-69
2023/06/24 10:14:33;;;;;;;15.00;14.40;;;33.20;90.20;;;;;;5039865;28;20879;-68
2023/06/24 10:17:04;;;;;;;16.10;15.40;;;33.10;90.10;;;;;;5035059;28;20471;-68
2023/06/24 10:19:39;;;;;;;15.17;14.50;;;33.40;86.10;;;;;;5044309;28;20496;-69
2023/06/24 10:22:11;;;;;;;15.40;14.70;;;33.40;87.40;;;;;;5035704;28;20558;-69
2023/06/24 10:24:41;;;;;;;16.63;15.93;;;33.30;86.70;;;;;;5032671;28;20480;-68
2023/06/24 10:27:09;;;;;;;15.20;14.57;;;33.10;82.10;;;;;;5036014;28;20460;-68
2023/06/24 10:29:38;;;;;;;14.87;14.17;;;33.50;81.60;;;;;;5036059;28;20452;-67
2023/06/24 10:32:07;;;;;;;14.47;13.97;;;33.20;76.60;;;;;;5032238;28;20468;-67
2023/06/24 10:34:41;;;;;;;15.30;14.60;;;33.20;77.00;;;;;;5040613;28;20575;-68
2023/06/24 10:37:11;;;;;;;15.07;14.47;;;33.20;76.40;;;;;;5042289;28;20556;-68
2023/06/24 10:39:52;;;;;;;14.60;14.10;;;33.20;71.30;;;;;;5037568;28;20554;-69
2023/06/24 10:42:34;;;;;;;15.00;14.30;;;33.10;73.50;;;;;;5041488;28;20588;-68
2023/06/24 10:45:02;;;;;;;14.10;13.60;;;33.50;73.60;;;;;;5037496;28;20488;-68
2023/06/24 10:47:30;;;;;;;14.83;14.13;;;33.20;69.80;;;;;;5042936;28;20474;-69
2023/06/24 10:49:59;;;;;;;13.33;12.93;;;33.10;71.00;;;;;;5033194;28;20472;-68
2023/06/24 10:52:26;;;;;;;12.93;12.60;;;33.80;71.70;;;;;;5039247;28;20471;-69
2023/06/24 10:54:54;;;;;;;16.30;15.60;;;34.30;69.80;;;;;;5035170;28;20454;-68
2023/06/24 10:57:25;;;;;;;15.57;14.87;;;33.70;61.70;;;;;;5033575;28;20470;-68
2023/06/24 10:59:53;;;;;;;15.03;14.33;;;32.90;65.10;;;;;;5038705;28;20463;-68
2023/06/24 11:02:21;;;;;;;14.97;14.37;;;32.50;60.70;;;;;;5035267;28;20464;-67
2023/06/24 11:04:50;;;;;;;15.93;15.13;;;31.40;62.00;;;;;;5036226;28;20477;-68
2023/06/24 11:07:21;;;;;;;15.60;14.90;;;31.70;63.20;;;;;;5041429;28;20851;-68
2023/06/24 11:09:51;;;;;;;15.37;14.77;;;31.60;64.10;;;;;;5033391;28;20451;-67
2023/06/24 11:12:19;;;;;;;15.20;14.60;;;32.10;65.50;;;;;;5034888;28;20487;-67
2023/06/24 11:14:47;;;;;;;14.50;14.00;;;32.80;64.80;;;;;;5035713;28;20469;-68
2023/06/24 11:17:13;;;;;;;14.60;14.00;;;32.40;69.10;;;;;;5038624;28;20809;-68
2023/06/24 11:19:40;;;;;;;14.53;13.93;;;32.50;68.70;;;;;;5044205;28;20468;-69
2023/06/24 11:22:09;;;;;;;15.00;14.40;;;32.70;67.10;;;;;;5033801;28;20463;-68
2023/06/24 11:24:39;;;;;;;15.00;14.40;;;33.00;62.50;;;;;;5034992;28;21226;-68
2023/06/24 11:27:06;;;;;;;15.37;14.77;;;33.00;65.90;;;;;;5031307;28;20514;-68
2023/06/24 11:29:34;;;;;;;16.57;15.03;;;33.00;66.00;;;;;;5036960;28;20483;-67
2023/06/24 11:32:02;;;;;;;15.60;14.90;;;33.30;65.90;;;;;;5032030;28;20555;-68
2023/06/24 11:34:29;;;;;;;15.20;14.60;;;34.10;64.40;;;;;;5038630;28;20676;-68
2023/06/24 11:36:56;;;;;;;15.20;14.60;;;34.60;65.70;;;;;;5035437;28;20471;-69
2023/06/24 11:39:24;;;;;;;15.20;14.60;;;35.20;62.20;;;;;;5036702;28;20465;-68
2023/06/24 11:41:53;;;;;;;14.20;13.70;;;34.70;62.10;;;;;;5040103;28;20467;-68
2023/06/24 11:44:21;;;;;;;14.13;13.63;;;35.10;60.70;;;;;;5032892;28;20495;-68
2023/06/24 11:46:48;;;;;;;13.93;13.43;;;34.90;59.80;;;;;;5034860;28;20621;-68
2023/06/24 11:49:15;;;;;;;14.27;13.70;;;35.10;59.90;;;;;;5037151;28;20464;-69
2023/06/24 11:51:49;;;;;;;13.90;13.40;;;35.10;57.00;;;;;;5035927;28;20456;-68
2023/06/24 11:54:19;;;;;;;13.30;12.80;;;34.40;56.80;;;;;;5038333;28;20457;-68
2023/06/24 11:56:52;;;;;;;13.50;13.00;;;34.60;55.50;;;;;;5032430;28;20572;-68
2023/06/24 11:59:21;;;;;;;14.13;13.53;;;33.80;56.30;;;;;;5039811;28;20455;-68
2023/06/24 12:01:55;;;;;;;13.73;13.23;;;34.20;57.30;;;;;;5034292;28;20858;-68
2023/06/24 12:04:28;;;;;;;13.30;12.80;;;34.20;55.70;;;;;;5030539;28;20503;-71
2023/06/24 12:06:55;;;;;;;13.10;12.60;;;34.60;54.90;;;;;;5031135;28;20682;-69
2023/06/24 12:09:23;;;;;;;12.37;12.07;;;35.00;54.90;;;;;;5033457;28;20449;-68
2023/06/24 12:11:52;;;;;;;11.87;11.57;;;34.90;53.50;;;;;;5033921;28;20953;-68
2023/06/24 12:14:19;;;;;;;12.33;12.03;;;35.00;53.80;;;;;;5038372;28;20460;-68
2023/06/24 12:16:46;;;;;;;13.57;13.07;;;35.00;53.60;;;;;;5037235;28;20492;-68
2023/06/24 12:19:14;;;;;;;14.30;13.80;;;35.00;50.80;;;;;;5036333;28;20514;-68
2023/06/24 12:21:41;;;;;;;12.20;11.90;;;35.50;51.60;;;;;;5044400;28;20487;-68
2023/06/24 12:24:09;;;;;;;11.53;11.23;;;34.90;51.80;;;;;;5034416;28;20523;-68
2023/06/24 12:26:37;;;;;;;12.03;11.73;;;35.30;51.20;;;;;;5039149;28;20494;-68
2023/06/24 12:29:07;;;;;;;12.20;11.90;;;36.40;51.90;;;;;;5041086;28;20463;-69
2023/06/24 12:31:34;;;;;;;12.40;12.10;;;37.00;51.60;;;;;;5041227;28;20831;-68
2023/06/24 12:34:01;;;;;;;12.17;11.87;;;37.20;50.60;;;;;;5038463;28;20476;-68
2023/06/24 12:36:27;;;;;;;12.83;12.53;;;37.20;48.00;;;;;;5048953;28;21115;-69
2023/06/24 12:38:54;;;;;;;12.37;12.07;;;36.60;47.60;;;;;;5029289;28;20468;-69
2023/06/24 12:41:21;;;;;;;12.80;12.50;;;36.00;48.90;;;;;;5038689;28;20872;-68